createdAt,value
2018-08-10T00:01:23.265Z,20.54
2018-08-10T00:07:28.681Z,20.45
2018-08-10T00:13:34.082Z,20.44
2018-08-10T00:19:39.125Z,20.46
2018-08-10T00:25:43.913Z,20.27
2018-08-10T00:31:48.792Z,20.32
2018-08-10T00:37:53.512Z,20.39
2018-08-10T00:43:58.324Z,20.27
2018-08-10T00:50:03.276Z,20.25
2018-08-10T00:56:08.045Z,20.13
2018-08-10T01:02:12.751Z,20.13
2018-08-10T01:08:17.532Z,20.07
2018-08-10T01:14:22.293Z,20.07
2018-08-10T01:20:26.970Z,20.17
2018-08-10T01:26:31.972Z,20.01
2018-08-10T01:32:36.876Z,19.91
2018-08-10T01:38:41.953Z,19.21
2018-08-10T01:44:46.634Z,18.73
2018-08-10T01:50:51.399Z,18.65
2018-08-10T01:56:56.100Z,18.53
2018-08-10T02:03:01.105Z,18.57
2018-08-10T02:09:09.556Z,18.55
2018-08-10T02:15:16.804Z,18.56
2018-08-10T02:21:21.571Z,18.57
2018-08-10T02:27:26.462Z,18.61
2018-08-10T02:33:31.157Z,18.57
2018-08-10T02:39:35.842Z,18.34
2018-08-10T02:45:40.918Z,18.29
2018-08-10T02:51:45.897Z,18.52
2018-08-10T02:57:50.590Z,18.43
2018-08-10T03:03:55.657Z,18.25
2018-08-10T03:10:01.123Z,18.07
2018-08-10T03:16:06.559Z,17.87
2018-08-10T03:22:11.295Z,17.58
2018-08-10T03:28:15.944Z,17.22
2018-08-10T03:34:20.767Z,17.12
2018-08-10T03:40:25.613Z,17.17
2018-08-10T03:46:30.267Z,17.03
2018-08-10T03:52:35.376Z,17.16
2018-08-10T03:58:40.107Z,17.16
2018-08-10T04:04:44.904Z,17.14
2018-08-10T04:10:49.529Z,16.92
2018-08-10T04:16:54.334Z,16.73
2018-08-10T04:22:59.170Z,16.69
2018-08-10T04:29:04.419Z,16.54
2018-08-10T04:35:09.784Z,16.76
2018-08-10T04:41:14.709Z,16.66
2018-08-10T04:47:19.499Z,16.61
2018-08-10T04:53:24.333Z,16.65
2018-08-10T04:59:30.313Z,16.58
2018-08-10T05:05:35.032Z,16.64
2018-08-10T05:11:39.779Z,16.59
2018-08-10T05:17:44.527Z,16.68
2018-08-10T05:23:49.603Z,16.72
2018-08-10T05:29:54.336Z,16.68
2018-08-10T05:35:59.123Z,16.51
2018-08-10T05:42:04.383Z,16.54
2018-08-10T05:48:09.202Z,16.64
2018-08-10T05:54:13.851Z,16.84
2018-08-10T06:00:18.925Z,17.12
2018-08-10T06:06:23.633Z,17.16
2018-08-10T06:12:28.422Z,17.35
2018-08-10T06:18:33.169Z,17.34
2018-08-10T06:24:38.684Z,17.78
2018-08-10T06:30:49.528Z,17.96
2018-08-10T06:36:54.257Z,18.01
2018-08-10T06:42:59.503Z,17.99
2018-08-10T06:49:04.636Z,18.06
2018-08-10T06:55:09.398Z,18.10
2018-08-10T07:01:14.565Z,18.24
2018-08-10T07:07:19.188Z,18.23
2018-08-10T07:13:24.056Z,18.34
2018-08-10T07:19:29.186Z,18.70
2018-08-10T07:25:34.134Z,19.14
2018-08-10T07:31:38.894Z,19.17
2018-08-10T07:37:43.889Z,18.95
2018-08-10T07:43:48.653Z,19.36
2018-08-10T07:49:53.351Z,19.24
2018-08-10T07:55:58.105Z,19.30
2018-08-10T08:02:03.206Z,19.54
2018-08-10T08:08:08.157Z,18.66
2018-08-10T08:14:12.915Z,18.78
2018-08-10T08:20:17.727Z,19.21
2018-08-10T08:26:22.493Z,19.25
2018-08-10T08:32:27.416Z,19.77
2018-08-10T08:38:49.232Z,19.85
2018-08-10T08:46:09.954Z,19.79
2018-08-10T08:52:14.557Z,19.87
2018-08-10T08:58:19.423Z,19.84
2018-08-10T09:05:05.107Z,20.28
2018-08-10T09:11:09.845Z,20.48
2018-08-10T09:17:14.720Z,20.90
2018-08-10T09:23:19.488Z,20.69
2018-08-10T09:29:24.233Z,20.90
2018-08-10T09:35:30.949Z,21.85
2018-08-10T09:41:36.003Z,22.28
2018-08-10T09:47:41.195Z,22.29
2018-08-10T09:53:46.180Z,23.04
2018-08-10T09:59:50.901Z,22.69
2018-08-10T10:05:58.558Z,22.88
2018-08-10T10:12:03.784Z,24.12
2018-08-10T10:18:10.991Z,24.43
2018-08-10T10:24:15.676Z,23.91
2018-08-10T10:30:20.500Z,23.25
2018-08-10T10:36:25.446Z,24.21
2018-08-10T10:42:31.122Z,24.71
2018-08-10T10:48:36.144Z,24.74
2018-08-10T10:54:40.895Z,25.56
2018-08-10T11:00:46.034Z,25.31
2018-08-10T11:06:50.993Z,26.45
2018-08-10T11:12:55.802Z,26.77
2018-08-10T11:19:01.637Z,25.51
2018-08-10T11:25:08.166Z,24.97
2018-08-10T11:31:13.340Z,24.83
2018-08-10T11:37:17.992Z,25.55
2018-08-10T11:43:22.700Z,25.29
2018-08-10T11:49:27.570Z,24.58
2018-08-10T11:55:33.263Z,24.24
2018-08-10T12:01:38.065Z,24.76
2018-08-10T12:07:43.225Z,26.56
2018-08-10T12:13:47.923Z,27.74
2018-08-10T12:19:52.641Z,26.92
2018-08-10T12:25:57.403Z,28.09
2018-08-10T12:32:03.608Z,30.19
2018-08-10T12:38:08.345Z,30.95
2018-08-10T12:44:13.053Z,32.76
2018-08-10T12:50:17.986Z,31.60
2018-08-10T12:56:22.718Z,30.73
2018-08-10T13:02:27.494Z,30.95
2018-08-10T13:08:33.131Z,30.78
2018-08-10T13:14:38.221Z,30.16
2018-08-10T13:20:42.917Z,32.21
2018-08-10T13:26:47.673Z,32.96
2018-08-10T13:32:52.502Z,31.80
2018-08-10T13:38:57.568Z,33.07
2018-08-10T13:45:03.038Z,32.48
2018-08-10T13:51:07.873Z,31.61
2018-08-10T13:57:12.590Z,28.38
2018-08-10T14:03:17.347Z,28.73
2018-08-10T14:09:22.069Z,30.91
2018-08-10T14:15:26.882Z,29.62
2018-08-10T14:21:32.368Z,28.14
2018-08-10T14:27:37.203Z,27.17
2018-08-10T14:33:41.928Z,26.68
2018-08-10T14:39:46.736Z,29.57
2018-08-10T14:45:51.466Z,31.36
2018-08-10T14:51:56.279Z,28.29
2018-08-10T14:58:01.346Z,27.48
2018-08-10T15:04:06.236Z,31.93
2018-08-10T15:10:14.049Z,33.58
2018-08-10T15:16:18.800Z,33.57
2018-08-10T15:22:23.521Z,30.98
2018-08-10T15:28:28.197Z,32.02
2018-08-10T15:34:33.143Z,30.18
2018-08-10T15:40:37.951Z,28.74
2018-08-10T15:46:42.982Z,29.89
2018-08-10T15:52:47.707Z,33.84
2018-08-10T15:58:52.395Z,34.03
2018-08-10T16:04:57.561Z,30.82
2018-08-10T16:11:02.430Z,31.29
2018-08-10T16:17:07.173Z,28.78
2018-08-10T16:23:11.901Z,27.68
2018-08-10T16:29:16.583Z,26.36
2018-08-10T16:35:21.988Z,29.97
2018-08-10T16:41:26.840Z,34.79
2018-08-10T16:47:31.898Z,34.04
2018-08-10T16:53:37.330Z,34.36
2018-08-10T16:59:42.158Z,32.16
2018-08-10T17:05:46.881Z,32.67
2018-08-10T17:11:51.714Z,30.40
2018-08-10T17:17:56.361Z,30.56
2018-08-10T17:24:01.191Z,28.48
2018-08-10T17:30:09.301Z,28.21
2018-08-10T17:36:14.302Z,27.93
2018-08-10T17:42:18.996Z,27.63
2018-08-10T17:48:23.806Z,25.90
2018-08-10T17:54:29.218Z,24.91
2018-08-10T18:00:34.302Z,24.39
2018-08-10T18:06:38.981Z,24.19
2018-08-10T18:12:44.595Z,26.62
2018-08-10T18:18:49.319Z,27.06
2018-08-10T18:24:54.096Z,27.46
2018-08-10T18:30:58.882Z,26.19
2018-08-10T18:37:03.665Z,24.53
2018-08-10T18:43:08.418Z,23.55
2018-08-10T18:49:13.238Z,22.68
2018-08-10T18:55:20.276Z,21.95
2018-08-10T19:01:25.261Z,21.37
2018-08-10T19:07:30.033Z,21.12
2018-08-10T19:13:35.059Z,20.76
2018-08-10T19:19:40.035Z,20.24
2018-08-10T19:25:44.840Z,20.02
2018-08-10T19:31:49.745Z,19.94
2018-08-10T19:37:54.856Z,19.80
2018-08-10T19:44:00.232Z,19.43
2018-08-10T19:50:06.522Z,19.19
2018-08-10T19:56:11.651Z,19.32
2018-08-10T20:02:16.649Z,19.32
2018-08-10T20:08:21.489Z,19.35
2018-08-10T20:14:26.163Z,19.29
2018-08-10T20:20:31.515Z,19.26
2018-08-10T20:26:37.618Z,19.05
2018-08-10T20:32:42.709Z,19.11
2018-08-10T20:38:47.416Z,18.93
2018-08-10T20:44:52.173Z,18.94
2018-08-10T20:50:57.014Z,18.65
2018-08-10T20:57:03.329Z,18.54
2018-08-10T21:03:08.020Z,18.33
2018-08-10T21:09:14.052Z,18.19
2018-08-10T21:15:18.929Z,18.10
2018-08-10T21:21:23.669Z,17.82
2018-08-10T21:27:29.226Z,17.97
2018-08-10T21:33:34.332Z,17.81
2018-08-10T21:39:39.489Z,17.94
2018-08-10T21:45:44.353Z,17.82
2018-08-10T21:51:49.033Z,17.92
2018-08-10T21:57:54.219Z,17.82
2018-08-10T22:03:59.319Z,17.48
2018-08-10T22:10:05.345Z,17.45
2018-08-10T22:16:15.556Z,17.48
2018-08-10T22:22:20.618Z,17.57
2018-08-10T22:29:12.634Z,17.32
2018-08-10T22:35:17.400Z,17.32
2018-08-10T22:41:22.265Z,17.05
2018-08-10T22:47:27.107Z,16.79
2018-08-10T22:53:32.118Z,16.79
2018-08-10T22:59:36.884Z,16.63
2018-08-10T23:05:41.727Z,16.69
2018-08-10T23:11:46.550Z,16.56
2018-08-10T23:17:51.372Z,16.59
2018-08-10T23:23:56.423Z,16.63
2018-08-10T23:30:01.682Z,16.23
2018-08-10T23:36:06.672Z,16.18
2018-08-10T23:42:11.733Z,16.14
2018-08-10T23:48:16.652Z,16.13
2018-08-10T23:54:21.534Z,16.06
